createdAt,value
2018-03-04T00:02:16.485Z,1.70
2018-03-04T00:04:42.728Z,1.70
2018-03-04T00:07:12.028Z,1.80
2018-03-04T00:09:39.232Z,1.70
2018-03-04T00:12:05.462Z,1.70
2018-03-04T00:14:31.849Z,1.80
2018-03-04T00:26:43.065Z,1.70
2018-03-04T00:29:11.185Z,1.70
2018-03-04T00:31:38.284Z,1.70
2018-03-04T00:34:06.347Z,1.70
2018-03-04T00:36:33.494Z,1.70
2018-03-04T00:39:00.722Z,1.70
2018-03-04T00:41:27.768Z,1.70
2018-03-04T00:43:54.796Z,1.70
2018-03-04T00:46:21.973Z,1.70
2018-03-04T00:48:50.330Z,1.70
2018-03-04T00:51:16.939Z,1.70
2018-03-04T00:53:43.141Z,1.70
2018-03-04T00:56:10.279Z,1.70
2018-03-04T00:58:37.168Z,1.70
2018-03-04T01:01:04.750Z,1.70
2018-03-04T01:03:30.991Z,1.80
2018-03-04T01:05:58.795Z,1.80
2018-03-04T01:08:25.092Z,1.80
2018-03-04T01:10:52.287Z,1.80
2018-03-04T01:13:19.427Z,1.80
2018-03-04T01:15:47.466Z,1.80
2018-03-04T01:18:15.593Z,1.70
2018-03-04T01:20:42.418Z,1.70
2018-03-04T01:23:09.282Z,1.70
2018-03-04T01:25:36.216Z,1.70
2018-03-04T01:28:03.427Z,1.70
2018-03-04T01:30:31.208Z,1.70
2018-03-04T01:32:57.447Z,1.70
2018-03-04T01:35:24.078Z,1.70
2018-03-04T01:37:50.406Z,1.70
2018-03-04T01:40:17.411Z,1.70
2018-03-04T01:42:43.662Z,1.80
2018-03-04T01:45:10.621Z,1.80
2018-03-04T01:47:37.547Z,1.80
2018-03-04T01:50:05.641Z,1.80
2018-03-04T01:52:32.628Z,1.80
2018-03-04T01:54:58.897Z,1.70
2018-03-04T01:57:25.124Z,1.80
2018-03-04T01:59:52.175Z,1.80
2018-03-04T02:02:18.363Z,1.80
2018-03-04T02:14:29.636Z,1.90
2018-03-04T02:16:56.698Z,1.90
2018-03-04T02:19:24.279Z,1.80
2018-03-04T02:21:51.290Z,1.80
2018-03-04T02:24:17.509Z,1.80
2018-03-04T02:26:44.068Z,1.70
2018-03-04T02:29:10.240Z,1.70
2018-03-04T02:31:36.468Z,1.80
2018-03-04T02:34:02.971Z,1.80
2018-03-04T02:36:30.024Z,1.80
2018-03-04T02:38:57.049Z,1.70
2018-03-04T02:41:24.151Z,1.80
2018-03-04T02:43:51.891Z,1.80
2018-03-04T02:46:18.801Z,1.80
2018-03-04T02:48:48.773Z,1.80
2018-03-04T02:51:15.044Z,1.80
2018-03-04T02:53:42.070Z,1.80
2018-03-04T02:56:08.243Z,1.80
2018-03-04T02:58:35.405Z,1.80
2018-03-04T03:01:01.631Z,1.80
2018-03-04T03:03:28.652Z,1.80
2018-03-04T03:05:54.841Z,1.80
2018-03-04T03:08:21.035Z,1.80
2018-03-04T03:10:48.035Z,1.80
2018-03-04T03:13:14.964Z,1.80
2018-03-04T03:15:41.553Z,1.90
2018-03-04T03:18:09.208Z,1.90
2018-03-04T03:20:35.470Z,1.90
2018-03-04T03:23:01.875Z,1.90
2018-03-04T03:25:29.022Z,1.90
2018-03-04T03:27:55.235Z,1.90
2018-03-04T03:30:22.261Z,1.90
2018-03-04T03:32:48.533Z,1.90
2018-03-04T03:35:15.780Z,1.80
2018-03-04T03:37:42.079Z,1.80
2018-03-04T03:40:08.237Z,1.80
2018-03-04T03:42:35.284Z,1.90
2018-03-04T03:45:03.480Z,2.00
2018-03-04T03:47:30.434Z,1.90
2018-03-04T03:49:58.383Z,1.90
2018-03-04T03:52:26.311Z,1.90
2018-03-04T04:04:38.510Z,1.90
2018-03-04T04:07:06.217Z,1.90
2018-03-04T04:09:32.397Z,1.90
2018-03-04T04:12:00.133Z,1.90
2018-03-04T04:14:28.667Z,1.90
2018-03-04T04:16:55.811Z,1.90
2018-03-04T04:19:22.619Z,1.90
2018-03-04T04:21:48.847Z,1.90
2018-03-04T04:24:15.821Z,1.90
2018-03-04T04:26:43.953Z,1.90
2018-03-04T04:29:10.979Z,1.90
2018-03-04T04:31:38.081Z,2.00
2018-03-04T04:34:04.267Z,2.00
2018-03-04T04:36:33.274Z,1.90
2018-03-04T04:39:00.451Z,2.00
2018-03-04T04:41:27.013Z,2.00
2018-03-04T04:43:53.354Z,2.00
2018-03-04T04:56:05.361Z,2.00
2018-03-04T04:58:31.842Z,1.90
2018-03-04T05:00:58.062Z,2.00
2018-03-04T05:03:25.309Z,2.00
2018-03-04T05:05:51.571Z,2.00
2018-03-04T05:08:19.406Z,2.00
2018-03-04T05:10:46.456Z,2.00
2018-03-04T05:13:12.642Z,2.00
2018-03-04T05:15:41.638Z,2.00
2018-03-04T05:18:09.772Z,2.00
2018-03-04T05:20:37.541Z,2.00
2018-03-04T05:23:04.510Z,1.90
2018-03-04T05:25:30.755Z,1.90
2018-03-04T05:27:58.007Z,1.70
2018-03-04T05:30:25.024Z,1.80
2018-03-04T05:32:51.978Z,1.90
2018-03-04T05:35:19.078Z,1.90
2018-03-04T05:37:45.283Z,1.90
2018-03-04T05:40:11.506Z,1.90
2018-03-04T05:42:37.741Z,2.00
2018-03-04T05:45:08.147Z,2.00
2018-03-04T05:47:36.142Z,2.00
2018-03-04T05:50:02.931Z,2.00
2018-03-04T05:52:30.135Z,2.00
2018-03-04T06:04:41.477Z,2.00
2018-03-04T06:07:07.774Z,2.00
2018-03-04T06:09:34.782Z,2.00
2018-03-04T06:12:00.995Z,2.00
2018-03-04T06:14:27.221Z,2.00
2018-03-04T06:16:54.436Z,2.00
2018-03-04T06:19:21.642Z,2.00
2018-03-04T06:21:48.735Z,2.00
2018-03-04T06:34:00.936Z,2.10
2018-03-04T06:36:27.241Z,2.10
2018-03-04T06:38:54.181Z,2.10
2018-03-04T06:41:21.214Z,2.10
2018-03-04T06:43:47.490Z,2.10
2018-03-04T06:46:13.994Z,2.10
2018-03-04T06:48:42.655Z,2.10
2018-03-04T07:04:09.720Z,2.20
2018-03-04T07:06:38.231Z,2.20
2018-03-04T07:09:04.532Z,2.30
2018-03-04T07:11:31.748Z,2.30
2018-03-04T07:13:59.130Z,2.20
2018-03-04T07:16:26.861Z,2.30
2018-03-04T07:18:53.085Z,2.30
2018-03-04T07:21:19.805Z,2.30
2018-03-04T07:23:46.009Z,2.50
2018-03-04T07:26:14.380Z,2.40
2018-03-04T07:28:42.648Z,2.40
2018-03-04T07:31:10.225Z,2.40
2018-03-04T07:33:37.874Z,2.40
2018-03-04T07:36:04.049Z,2.40
2018-03-04T07:38:30.232Z,2.50
2018-03-04T07:40:57.080Z,2.50
2018-03-04T07:43:24.083Z,2.50
2018-03-04T07:45:50.329Z,2.60
2018-03-04T07:48:17.541Z,2.60
2018-03-04T07:50:43.741Z,2.60
2018-03-04T07:53:10.630Z,2.70
2018-03-04T07:55:37.877Z,2.60
2018-03-04T07:58:04.848Z,2.60
2018-03-04T08:00:32.058Z,2.60
2018-03-04T08:02:58.287Z,2.70
2018-03-04T08:05:25.483Z,2.70
2018-03-04T08:07:51.742Z,2.70
2018-03-04T08:20:03.029Z,3.00
2018-03-04T08:22:31.110Z,2.80
2018-03-04T08:25:09.598Z,2.80
2018-03-04T08:27:49.046Z,2.80
2018-03-04T08:30:15.420Z,2.80
2018-03-04T08:32:41.715Z,2.90
2018-03-04T08:35:08.809Z,2.90
2018-03-04T08:37:35.868Z,2.90
2018-03-04T08:40:03.033Z,2.90
2018-03-04T08:42:30.104Z,2.90
2018-03-04T08:44:56.952Z,2.90
2018-03-04T08:47:23.223Z,2.90
2018-03-04T08:49:49.870Z,2.90
2018-03-04T08:52:16.115Z,2.90
2018-03-04T08:54:42.340Z,2.90
2018-03-04T08:57:10.984Z,2.90
2018-03-04T08:59:38.108Z,2.90
2018-03-04T09:02:04.353Z,3.00
2018-03-04T09:04:30.645Z,3.00
2018-03-04T09:06:57.754Z,3.00
2018-03-04T09:09:24.805Z,3.00
2018-03-04T09:11:51.804Z,3.00
2018-03-04T09:14:18.794Z,3.10
2018-03-04T09:16:45.615Z,3.10
2018-03-04T09:19:13.062Z,3.10
2018-03-04T09:21:40.137Z,3.20
2018-03-04T09:24:07.173Z,3.30
2018-03-04T09:26:34.149Z,3.30
2018-03-04T09:29:01.851Z,3.20
2018-03-04T09:31:29.627Z,3.50
2018-03-04T09:33:56.765Z,4.00
2018-03-04T09:36:25.751Z,3.60
2018-03-04T09:38:53.457Z,3.60
2018-03-04T09:41:19.847Z,3.70
2018-03-04T09:43:46.141Z,3.70
2018-03-04T09:46:12.407Z,3.80
2018-03-04T09:48:38.812Z,3.90
2018-03-04T09:51:06.674Z,3.70
2018-03-04T09:53:33.684Z,3.90
2018-03-04T09:55:59.983Z,3.90
2018-03-04T09:58:26.424Z,3.90
2018-03-04T10:00:53.682Z,4.00
2018-03-04T10:03:19.934Z,4.00
2018-03-04T10:05:48.506Z,4.10
2018-03-04T10:08:17.284Z,4.20
2018-03-04T10:10:45.959Z,4.30
2018-03-04T10:13:12.172Z,4.20
2018-03-04T10:15:38.467Z,4.40
2018-03-04T10:18:04.717Z,4.40
2018-03-04T10:20:30.950Z,4.40
2018-03-04T10:22:58.064Z,4.60
2018-03-04T10:25:25.121Z,4.60
2018-03-04T10:27:51.446Z,4.80
2018-03-04T10:30:17.960Z,4.60
2018-03-04T10:32:46.149Z,4.80
2018-03-04T10:35:12.446Z,4.80
2018-03-04T10:37:39.417Z,4.90
2018-03-04T10:40:06.647Z,4.90
2018-03-04T10:42:34.429Z,4.90
2018-03-04T10:45:02.941Z,5.20
2018-03-04T10:47:30.194Z,5.20
2018-03-04T10:49:56.428Z,5.30
2018-03-04T10:52:23.475Z,5.50
2018-03-04T10:54:49.761Z,5.50
2018-03-04T10:57:17.115Z,5.60
2018-03-04T10:59:43.435Z,5.60
2018-03-04T11:02:15.794Z,6.10
2018-03-04T11:04:43.804Z,7.40
2018-03-04T11:07:10.807Z,8.00
2018-03-04T11:09:38.064Z,7.90
2018-03-04T11:12:04.278Z,7.50
2018-03-04T11:14:30.614Z,7.20
2018-03-04T11:16:56.842Z,7.00
2018-03-04T11:19:24.009Z,6.90
2018-03-04T11:21:50.274Z,7.00
2018-03-04T11:24:17.210Z,7.30
2018-03-04T11:26:43.505Z,7.30
2018-03-04T11:29:09.732Z,7.40
2018-03-04T11:31:36.329Z,7.70
2018-03-04T11:34:03.282Z,7.30
2018-03-04T11:36:29.641Z,7.20
2018-03-04T11:38:55.927Z,7.20
2018-03-04T11:41:22.922Z,7.30
2018-03-04T11:43:49.143Z,7.20
2018-03-04T11:46:15.429Z,7.50
2018-03-04T11:48:42.425Z,8.90
2018-03-04T11:51:09.174Z,10.10
2018-03-04T11:53:35.430Z,10.30
2018-03-04T11:56:05.863Z,13.70
2018-03-04T11:58:32.122Z,13.70
2018-03-04T12:00:58.370Z,14.30
2018-03-04T12:03:25.560Z,14.30
2018-03-04T12:05:51.756Z,14.70
2018-03-04T12:08:18.016Z,15.00
2018-03-04T12:10:45.003Z,15.70
2018-03-04T12:13:12.050Z,17.90
2018-03-04T12:15:39.036Z,19.20
2018-03-04T12:18:05.383Z,19.10
2018-03-04T12:20:31.670Z,19.50
2018-03-04T12:22:58.814Z,18.80
2018-03-04T12:25:25.069Z,18.10
2018-03-04T12:27:52.159Z,17.70
2018-03-04T12:30:18.400Z,17.40
2018-03-04T12:32:45.139Z,17.10
2018-03-04T12:35:11.376Z,16.50
2018-03-04T12:37:39.563Z,16.60
2018-03-04T12:40:06.446Z,16.50
2018-03-04T12:42:33.624Z,16.50
2018-03-04T12:44:59.929Z,17.30
2018-03-04T12:47:26.151Z,18.10
2018-03-04T12:49:52.370Z,18.20
2018-03-04T12:52:18.666Z,18.20
2018-03-04T12:54:45.688Z,18.60
2018-03-04T12:57:11.948Z,19.00
2018-03-04T12:59:38.901Z,18.80
2018-03-04T13:02:05.910Z,18.70
2018-03-04T13:04:32.156Z,18.70
2018-03-04T13:06:58.392Z,18.50
2018-03-04T13:09:25.422Z,18.30
2018-03-04T13:11:51.637Z,18.40
2018-03-04T13:14:17.839Z,18.00
2018-03-04T13:16:44.291Z,18.00
2018-03-04T13:19:10.548Z,17.70
2018-03-04T13:21:37.344Z,17.70
2018-03-04T13:24:03.605Z,17.70
2018-03-04T13:26:29.836Z,17.70
2018-03-04T13:28:56.063Z,17.20
2018-03-04T13:31:22.367Z,16.90
2018-03-04T13:33:48.576Z,16.70
2018-03-04T13:36:14.856Z,16.20
2018-03-04T13:38:42.679Z,16.30
2018-03-04T13:41:09.018Z,15.70
2018-03-04T13:43:36.083Z,15.70
2018-03-04T13:46:02.359Z,15.20
2018-03-04T13:48:29.399Z,15.10
2018-03-04T13:50:55.757Z,15.10
2018-03-04T13:53:22.715Z,15.40
2018-03-04T13:55:48.949Z,15.30
2018-03-04T13:58:15.241Z,15.40
2018-03-04T14:00:42.227Z,15.40
2018-03-04T14:03:08.573Z,15.30
2018-03-04T14:05:34.823Z,15.00
2018-03-04T14:08:01.810Z,14.80
2018-03-04T14:10:28.786Z,14.60
2018-03-04T14:12:55.820Z,14.70
2018-03-04T14:15:22.102Z,14.70
2018-03-04T14:27:33.684Z,14.90
2018-03-04T14:30:00.774Z,14.80
2018-03-04T14:32:27.039Z,14.80
2018-03-04T14:34:53.322Z,14.80
2018-03-04T14:37:19.564Z,15.30
2018-03-04T14:39:45.870Z,15.50
2018-03-04T14:42:12.842Z,14.80
2018-03-04T14:44:39.105Z,14.70
2018-03-04T14:47:05.350Z,14.70
2018-03-04T14:49:31.652Z,14.30
2018-03-04T14:51:57.961Z,14.00
2018-03-04T14:54:24.231Z,13.60
2018-03-04T14:56:50.540Z,13.20
2018-03-04T14:59:16.814Z,13.20
2018-03-04T15:01:43.119Z,13.00
2018-03-04T15:04:09.529Z,13.00
2018-03-04T15:06:35.748Z,12.50
2018-03-04T15:09:02.434Z,12.40
2018-03-04T15:11:29.449Z,12.30
2018-03-04T15:13:55.703Z,12.20
2018-03-04T15:16:21.990Z,12.10
2018-03-04T15:18:49.075Z,11.90
2018-03-04T15:21:15.353Z,12.00
2018-03-04T15:23:41.712Z,11.80
2018-03-04T15:26:07.948Z,11.80
2018-03-04T15:28:35.132Z,11.80
2018-03-04T15:31:01.377Z,11.80
2018-03-04T15:33:28.424Z,11.70
2018-03-04T15:35:55.385Z,11.70
2018-03-04T15:38:21.638Z,11.70
2018-03-04T15:40:48.960Z,11.60
2018-03-04T15:43:15.765Z,11.40
2018-03-04T15:45:42.881Z,11.30
2018-03-04T15:48:09.171Z,11.20
2018-03-04T15:50:35.418Z,11.20
2018-03-04T15:53:01.686Z,11.20
2018-03-04T15:55:27.859Z,13.10
2018-03-04T15:57:54.998Z,10.90
2018-03-04T16:00:21.264Z,10.80
2018-03-04T16:02:47.484Z,10.90
2018-03-04T16:05:14.681Z,11.20
2018-03-04T16:07:40.909Z,11.50
2018-03-04T16:19:52.448Z,11.40
2018-03-04T16:32:05.514Z,10.90
2018-03-04T16:34:31.804Z,10.40
2018-03-04T16:36:59.183Z,10.30
2018-03-04T16:39:25.530Z,10.30
2018-03-04T16:41:51.747Z,10.20
2018-03-04T16:54:04.212Z,10.00
2018-03-04T16:56:32.228Z,10.00
2018-03-04T16:58:58.582Z,9.90
2018-03-04T17:01:24.862Z,9.90
2018-03-04T17:13:38.360Z,9.60
2018-03-04T17:16:04.691Z,9.60
2018-03-04T17:18:32.591Z,9.60
2018-03-04T17:20:59.133Z,9.50
2018-03-04T17:23:26.593Z,9.40
2018-03-04T17:25:53.277Z,9.40
2018-03-04T17:28:21.971Z,9.40
2018-03-04T17:30:48.413Z,9.40
2018-03-04T17:33:14.673Z,9.40
2018-03-04T17:35:40.936Z,9.20
2018-03-04T17:38:07.171Z,9.20
2018-03-04T17:40:34.880Z,9.10
2018-03-04T17:43:01.213Z,9.00
2018-03-04T17:45:28.247Z,8.90
2018-03-04T17:47:56.590Z,8.90
2018-03-04T17:50:22.908Z,8.90
2018-03-04T17:52:49.162Z,8.90
2018-03-04T17:55:15.486Z,8.80
2018-03-04T17:57:41.833Z,8.80
2018-03-04T18:00:08.061Z,8.70
2018-03-04T18:02:35.215Z,8.80
2018-03-04T18:05:03.025Z,8.70
2018-03-04T18:07:29.340Z,8.60
2018-03-04T18:09:56.702Z,8.70
2018-03-04T18:12:24.810Z,8.60
2018-03-04T18:14:51.889Z,8.60
2018-03-04T18:17:19.401Z,8.60
2018-03-04T18:19:45.743Z,8.60
2018-03-04T18:22:12.956Z,8.60
2018-03-04T18:24:40.331Z,8.60
2018-03-04T18:27:07.389Z,8.60
2018-03-04T18:29:33.672Z,8.50
2018-03-04T18:32:00.052Z,8.50
2018-03-04T18:34:27.184Z,8.50
2018-03-04T18:36:54.437Z,8.50
2018-03-04T18:39:20.728Z,8.50
2018-03-04T18:41:47.760Z,8.50
2018-03-04T18:44:15.372Z,8.40
2018-03-04T18:46:41.602Z,8.40
2018-03-04T18:49:09.206Z,8.40
2018-03-04T18:51:35.408Z,8.40
2018-03-04T18:54:01.726Z,8.40
2018-03-04T18:56:28.880Z,8.40
2018-03-04T18:58:56.104Z,8.40
2018-03-04T19:01:23.593Z,8.30
2018-03-04T19:03:49.972Z,8.40
2018-03-04T19:06:17.282Z,8.30
2018-03-04T19:08:46.050Z,8.30
2018-03-04T19:11:14.232Z,8.20
2018-03-04T19:13:41.288Z,8.30
2018-03-04T19:16:08.386Z,8.30
2018-03-04T19:18:35.829Z,8.30
2018-03-04T19:21:02.511Z,8.30
2018-03-04T19:23:30.348Z,8.30
2018-03-04T19:25:56.687Z,8.30
2018-03-04T19:28:23.907Z,8.30
2018-03-04T19:30:50.814Z,8.30
2018-03-04T19:33:17.334Z,8.30
2018-03-04T19:35:45.220Z,8.20
2018-03-04T19:38:13.425Z,8.20
2018-03-04T19:40:39.796Z,8.10
2018-03-04T19:43:07.058Z,8.10
2018-03-04T19:45:33.644Z,8.10
2018-03-04T19:48:00.032Z,8.10
2018-03-04T19:50:29.392Z,8.00
2018-03-04T19:52:59.598Z,8.00
2018-03-04T19:55:26.671Z,8.00
2018-03-04T19:57:53.681Z,8.00
2018-03-04T20:00:20.950Z,7.90
2018-03-04T20:02:47.617Z,7.80
2018-03-04T20:05:14.860Z,7.90
2018-03-04T20:07:41.256Z,7.80
2018-03-04T20:19:52.707Z,7.80
2018-03-04T20:22:19.735Z,7.80
2018-03-04T20:24:46.920Z,7.90
2018-03-04T20:27:14.448Z,7.80
2018-03-04T20:29:41.371Z,7.80
2018-03-04T20:32:10.840Z,7.80
2018-03-04T20:34:37.971Z,7.80
2018-03-04T20:37:04.227Z,7.80
2018-03-04T20:39:30.516Z,7.70
2018-03-04T20:41:58.604Z,7.70
2018-03-04T20:44:24.897Z,7.70
2018-03-04T20:46:51.224Z,7.80
2018-03-04T20:49:18.776Z,7.70
2018-03-04T20:51:45.993Z,7.80
2018-03-04T20:54:14.020Z,7.70
2018-03-04T20:56:41.193Z,7.70
2018-03-04T20:59:09.964Z,7.70
2018-03-04T21:01:36.312Z,7.70
2018-03-04T21:04:03.005Z,7.70
2018-03-04T21:06:29.244Z,7.60
2018-03-04T21:08:55.718Z,7.60
2018-03-04T21:11:22.082Z,7.60
2018-03-04T21:13:49.801Z,7.60
2018-03-04T21:16:17.489Z,7.50
2018-03-04T21:18:43.812Z,7.60
2018-03-04T21:21:11.086Z,7.50
2018-03-04T21:23:37.341Z,7.50
2018-03-04T21:26:03.660Z,7.50
2018-03-04T21:28:30.503Z,7.50
2018-03-04T21:30:57.773Z,7.50
2018-03-04T21:33:24.102Z,7.50
2018-03-04T21:35:51.368Z,7.40
2018-03-04T21:38:18.992Z,7.40
2018-03-04T21:40:46.212Z,7.40
2018-03-04T21:43:13.333Z,7.30
2018-03-04T21:45:39.912Z,7.30
2018-03-04T21:48:06.196Z,7.30
2018-03-04T21:50:32.675Z,7.20
2018-03-04T21:52:59.018Z,7.20
2018-03-04T21:55:26.066Z,7.20
2018-03-04T21:57:53.608Z,7.10
2018-03-04T22:00:23.102Z,7.00
2018-03-04T22:02:50.516Z,7.00
2018-03-04T22:05:17.107Z,6.90
2018-03-04T22:07:44.796Z,6.80
2018-03-04T22:10:12.146Z,6.80
2018-03-04T22:12:38.567Z,6.80
2018-03-04T22:15:05.554Z,6.80
2018-03-04T22:17:32.552Z,6.70
2018-03-04T22:19:59.697Z,6.70
2018-03-04T22:22:26.287Z,6.60
2018-03-04T22:24:52.523Z,6.60
2018-03-04T22:27:18.934Z,6.60
2018-03-04T22:29:45.216Z,6.50
2018-03-04T22:32:11.541Z,6.50
2018-03-04T22:34:37.973Z,6.50
2018-03-04T22:37:06.881Z,6.50
2018-03-04T22:39:34.041Z,6.50
2018-03-04T22:42:01.451Z,6.60
2018-03-04T22:44:29.519Z,6.60
2018-03-04T22:46:55.854Z,6.60
2018-03-04T22:49:23.871Z,6.60
2018-03-04T22:51:51.108Z,6.50
2018-03-04T22:54:17.449Z,6.50
2018-03-04T22:56:44.507Z,6.50
2018-03-04T22:59:11.499Z,6.50
2018-03-04T23:01:37.753Z,6.40
2018-03-04T23:04:04.010Z,6.50
2018-03-04T23:06:30.998Z,6.50
2018-03-04T23:08:57.330Z,6.50
2018-03-04T23:11:25.432Z,6.50
2018-03-04T23:13:51.633Z,6.50
2018-03-04T23:16:18.797Z,6.50
2018-03-04T23:18:52.774Z,6.50
2018-03-04T23:21:20.201Z,6.50
2018-03-04T23:23:47.663Z,6.50
2018-03-04T23:35:59.741Z,6.40
2018-03-04T23:38:25.967Z,6.40
2018-03-04T23:40:52.950Z,6.30
2018-03-04T23:43:20.473Z,6.30
2018-03-04T23:45:47.555Z,6.20
2018-03-04T23:48:13.777Z,6.20
2018-03-04T23:50:42.990Z,6.20
2018-03-04T23:53:09.296Z,6.20
2018-03-04T23:55:36.407Z,6.20
2018-03-04T23:58:06.062Z,6.10
